Terminal Aerodrome Forecast
Issued by NWS Houston/Galveston, TX

Home | Current Version | Previous Version | Text Only | Print | Product List | Glossary On
Versions: 1 2 3 4 5 6 7 8 9 10 11 12 13 14 15 16 17 18 19 20 21 22 23 24 25 26 27 28 29 30 31 32 33 34 35 36 37 38 39 40 41 42 43 44 45 46 47 48 49 50
000
FTUS44 KHGX 271402 AAB
TAFCLL
TAF AMD
KCLL 271402Z 2714/2812 18010KT 5SM BR OVC004
      TEMPO 2715/2716 6SM BR BKN007
     FM271600 21008KT P6SM SCT025 BKN035
      TEMPO 2716/2717 BKN010
     FM272200 17005KT P6SM VCSH SCT050
     FM280300 13005KT P6SM BKN050
     FM280800 13004KT 6SM BR SCT007 SCT015=

USA.gov is the U.S. government's official web portal to all federal, state and local government web resources and services.